Time;durP1;ratioP1;P1;durP2;ratioP2;P2;SDS_P1;SDS_P2;PMS_P1;PMS_P2;Temp;Humidity;BMP_temperature;BMP_pressure;BME280_temperature;BME280_humidity;BME280_pressure;Samples;Min_cycle;Max_cycle;Signal;HPM_P1;HPM_P2
2022/09/23 18:22:16;;;;;;;28.27;25.58;;;15.30;99.90;;;;;;5063809;27;21342;-78
2022/09/23 18:24:42;;;;;;;30.48;26.60;;;15.20;99.90;;;;;;5049862;28;20041;-76
2022/09/23 18:27:08;;;;;;;30.40;27.13;;;15.20;99.90;;;;;;5051528;28;20053;-77
2022/09/23 18:29:34;;;;;;;28.45;25.48;;;15.20;99.90;;;;;;5055493;28;20144;-76
2022/09/23 18:32:00;;;;;;;21.40;19.20;;;15.10;99.90;;;;;;5054872;28;20083;-77
2022/09/23 18:34:27;;;;;;;19.38;16.05;;;15.10;99.90;;;;;;5063624;28;20060;-77
2022/09/23 18:36:54;;;;;;;16.58;12.65;;;15.20;99.90;;;;;;5060792;28;20412;-77
2022/09/23 18:39:20;;;;;;;;;;;15.20;99.90;;;;;;5055523;28;20041;-77
2022/09/23 18:41:48;;;;;;;15.65;11.60;;;15.20;99.90;;;;;;5056089;28;19934;-77
2022/09/23 18:44:15;;;;;;;14.55;11.38;;;15.10;99.90;;;;;;5052773;28;20124;-77
2022/09/23 18:46:41;;;;;;;13.80;12.40;;;15.20;99.90;;;;;;5061997;28;20060;-77
2022/09/23 18:51:54;;;;;;;15.50;12.18;;;15.20;99.90;;;;;;5047914;28;20053;-77
2022/09/23 18:54:24;;;;;;;12.77;11.32;;;15.20;99.90;;;;;;5043727;28;20048;-77
2022/09/23 18:56:53;;;;;;;14.20;11.52;;;15.10;99.90;;;;;;5046909;28;20132;-77
2022/09/23 18:59:22;;;;;;;16.27;11.07;;;15.20;99.90;;;;;;5054207;28;20041;-78
2022/09/23 19:01:53;;;;;;;15.15;10.98;;;15.20;99.90;;;;;;5047230;28;20053;-77
2022/09/23 19:04:20;;;;;;;15.88;11.52;;;15.20;99.90;;;;;;5048306;28;20037;-77
2022/09/23 19:06:46;;;;;;;20.70;18.50;;;15.20;99.90;;;;;;5043949;28;20033;-78
2022/09/23 19:09:11;;;;;;;29.25;26.50;;;15.20;99.90;;;;;;5043494;28;20056;-78
2022/09/23 19:11:37;;;;;;;33.40;30.08;;;15.20;99.90;;;;;;5047134;28;20036;-78
2022/09/23 19:14:05;;;;;;;19.40;17.40;;;15.20;99.90;;;;;;5053148;28;20488;-77
2022/09/23 19:16:31;;;;;;;22.85;20.63;;;15.20;99.90;;;;;;5041777;28;20087;-77
2022/09/23 19:18:58;;;;;;;18.80;17.02;;;15.20;99.90;;;;;;5050556;28;20041;-77
2022/09/23 19:21:25;;;;;;;19.50;17.67;;;15.20;99.90;;;;;;5044845;28;20717;-77
2022/09/23 19:24:06;;;;;;;23.52;21.50;;;15.10;99.90;;;;;;5055335;28;20032;-77
2022/09/23 19:26:37;;;;;;;27.50;24.90;;;15.10;99.90;;;;;;5045882;28;20045;-77
2022/09/23 19:29:04;;;;;;;38.53;34.90;;;15.10;99.90;;;;;;5046817;28;20051;-77
2022/09/23 19:31:32;;;;;;;39.72;36.22;;;15.10;99.90;;;;;;5048110;28;20546;-79
2022/09/23 19:34:01;;;;;;;39.30;35.85;;;15.10;99.90;;;;;;5036707;28;20037;-74
2022/09/23 19:36:28;;;;;;;32.58;29.48;;;15.10;99.90;;;;;;5033535;28;20048;-77
2022/09/23 19:39:05;;;;;;;26.58;24.27;;;15.10;99.90;;;;;;5029697;28;20072;-77
2022/09/23 19:41:32;;;;;;;25.17;22.58;;;15.10;99.90;;;;;;5029036;28;20128;-77
2022/09/23 19:44:05;;;;;;;24.95;22.63;;;15.10;99.90;;;;;;5036693;28;20159;-76
2022/09/23 19:46:36;;;;;;;20.67;18.58;;;15.10;99.90;;;;;;5032067;28;20029;-76
2022/09/23 19:49:04;;;;;;;19.58;16.98;;;15.10;99.90;;;;;;5036807;28;20071;-76
2022/09/23 19:51:32;;;;;;;17.77;16.08;;;15.10;99.90;;;;;;5038444;28;20040;-76
2022/09/23 19:54:02;;;;;;;16.92;15.13;;;15.00;99.90;;;;;;5033085;28;20056;-76
2022/09/23 19:56:29;;;;;;;14.73;13.07;;;15.10;99.90;;;;;;5033210;28;20084;-76
2022/09/23 19:58:56;;;;;;;17.02;14.00;;;15.00;99.90;;;;;;5048974;28;20412;-75
2022/09/23 20:01:22;;;;;;;16.42;14.52;;;15.00;99.90;;;;;;5036055;28;20130;-74
2022/09/23 20:03:48;;;;;;;18.58;15.05;;;15.00;99.90;;;;;;5036368;28;20067;-74
2022/09/23 20:06:16;;;;;;;16.83;15.05;;;15.00;99.90;;;;;;5039991;28;20037;-74
2022/09/23 20:08:43;;;;;;;16.25;14.52;;;14.90;99.90;;;;;;5034175;28;20044;-75
2022/09/23 20:11:20;;;;;;;17.05;15.25;;;14.90;99.90;;;;;;5037649;28;20053;-75
2022/09/23 20:13:46;;;;;;;;;;;14.90;99.90;;;;;;5037126;28;20547;-75
2022/09/23 20:16:17;;;;;;;18.60;16.50;;;14.80;99.90;;;;;;5041765;28;20301;-75
2022/09/23 20:18:44;;;;;;;18.83;15.77;;;14.80;99.90;;;;;;5038414;28;20053;-75
2022/09/23 20:21:12;;;;;;;19.27;17.30;;;14.80;99.90;;;;;;5038778;28;20068;-75
2022/09/23 20:23:38;;;;;;;19.27;17.15;;;14.80;99.90;;;;;;5043865;28;20045;-75
2022/09/23 20:28:49;;;;;;;21.40;19.20;;;14.80;99.90;;;;;;5042977;28;20460;-74
2022/09/23 20:31:16;;;;;;;22.10;19.92;;;14.70;99.90;;;;;;5046736;28;20068;-75
2022/09/23 20:33:42;;;;;;;22.02;19.73;;;14.70;99.90;;;;;;5042095;28;20041;-74
2022/09/23 20:36:09;;;;;;;20.42;18.48;;;14.70;99.90;;;;;;5044014;28;20060;-75
2022/09/23 20:38:35;;;;;;;;;;;14.70;99.90;;;;;;5038989;28;20051;-74
2022/09/23 20:41:01;;;;;;;20.95;18.83;;;14.70;99.90;;;;;;5032072;28;19921;-76
2022/09/23 20:43:27;;;;;;;22.20;19.92;;;14.60;99.90;;;;;;5031307;28;20045;-76
2022/09/23 20:45:54;;;;;;;22.08;19.77;;;14.60;99.90;;;;;;5031426;28;20029;-76
2022/09/23 20:48:22;;;;;;;23.30;20.00;;;14.60;99.90;;;;;;5032713;28;20088;-76
2022/09/23 20:50:51;;;;;;;22.85;20.50;;;14.60;99.90;;;;;;5030853;28;20041;-75
2022/09/23 20:53:18;;;;;;;23.42;20.65;;;14.60;99.90;;;;;;5034278;28;20130;-75
2022/09/23 20:55:55;;;;;;;25.92;23.30;;;14.60;99.90;;;;;;5042739;28;20106;-75
2022/09/23 20:58:28;;;;;;;24.30;21.80;;;14.60;99.90;;;;;;5035767;28;20400;-75
2022/09/23 21:01:09;;;;;;;24.33;21.73;;;14.50;99.90;;;;;;5034276;28;20456;-75
2022/09/23 21:03:36;;;;;;;24.23;21.70;;;14.60;99.90;;;;;;5031385;28;20067;-75
2022/09/23 21:06:02;;;;;;;22.20;19.92;;;14.50;99.90;;;;;;5031215;28;20056;-75
2022/09/23 21:08:29;;;;;;;24.13;21.17;;;14.50;99.90;;;;;;5031868;28;20386;-75
2022/09/23 21:10:56;;;;;;;24.10;21.80;;;14.50;99.90;;;;;;5031922;28;20041;-75
2022/09/23 21:13:22;;;;;;;25.98;23.40;;;14.50;99.90;;;;;;5036887;28;20042;-75
2022/09/23 21:15:48;;;;;;;26.38;23.73;;;14.50;99.90;;;;;;5029363;28;20055;-75
2022/09/23 21:18:14;;;;;;;26.58;23.85;;;14.50;99.90;;;;;;5036102;28;20033;-77
2022/09/23 21:20:40;;;;;;;27.50;24.73;;;14.50;99.90;;;;;;5055588;28;20041;-77
2022/09/23 21:23:06;;;;;;;27.83;24.98;;;14.50;99.90;;;;;;5033817;28;20132;-77
2022/09/23 21:25:34;;;;;;;28.55;25.15;;;14.50;99.90;;;;;;5033080;28;20040;-77
2022/09/23 21:28:02;;;;;;;28.00;25.10;;;14.50;99.90;;;;;;5040569;28;20045;-77
2022/09/23 21:30:28;;;;;;;26.85;24.00;;;14.50;99.90;;;;;;5027951;28;20118;-77
2022/09/23 21:32:54;;;;;;;26.92;24.20;;;14.50;99.90;;;;;;5031617;28;20033;-77
2022/09/23 21:35:20;;;;;;;25.92;23.35;;;14.50;99.90;;;;;;5033593;28;20044;-77
2022/09/23 21:37:46;;;;;;;26.70;23.92;;;14.50;99.90;;;;;;5041250;28;20037;-78
2022/09/23 21:42:59;;;;;;;25.33;22.73;;;14.40;99.90;;;;;;5032513;28;20199;-77
2022/09/23 21:45:26;;;;;;;26.20;23.42;;;14.40;99.90;;;;;;5028831;28;20105;-77
2022/09/23 21:47:52;;;;;;;26.47;23.67;;;14.40;99.90;;;;;;5051877;28;20124;-77
2022/09/23 21:50:18;;;;;;;27.33;22.90;;;14.40;99.90;;;;;;5032031;28;20037;-77
2022/09/23 21:52:45;;;;;;;26.08;22.75;;;14.40;99.90;;;;;;5039434;28;20046;-77
2022/09/23 21:55:11;;;;;;;24.10;21.58;;;14.40;99.90;;;;;;5036682;28;20052;-77
2022/09/23 21:57:37;;;;;;;25.57;21.70;;;14.40;99.90;;;;;;5056494;28;20400;-78
2022/09/23 22:00:05;;;;;;;24.13;21.55;;;14.40;99.90;;;;;;5029230;28;20045;-78
2022/09/23 22:02:31;;;;;;;27.17;22.02;;;14.50;99.90;;;;;;5028518;28;20050;-76
2022/09/23 22:04:56;;;;;;;25.20;22.60;;;14.40;99.90;;;;;;5029734;28;20037;-78
2022/09/23 22:07:22;;;;;;;24.80;22.40;;;14.40;99.90;;;;;;5036743;28;20095;-77
2022/09/23 22:09:48;;;;;;;26.20;23.50;;;14.40;99.90;;;;;;5032505;28;20111;-78
2022/09/23 22:12:14;;;;;;;28.88;24.75;;;14.50;99.90;;;;;;5037342;28;20091;-78
2022/09/23 22:14:40;;;;;;;27.48;24.67;;;14.40;99.90;;;;;;5040449;28;20403;-77
2022/09/23 22:17:09;;;;;;;28.02;25.20;;;14.40;99.90;;;;;;5035594;28;20046;-78
2022/09/23 22:19:37;;;;;;;29.73;26.63;;;14.40;99.90;;;;;;5035965;28;20609;-77
2022/09/23 22:22:11;;;;;;;27.80;24.75;;;14.40;99.90;;;;;;5035785;28;20124;-77
2022/09/23 22:24:37;;;;;;;28.83;25.50;;;14.40;99.90;;;;;;5037055;28;20130;-77
2022/09/23 22:27:03;;;;;;;30.17;27.05;;;14.40;99.90;;;;;;5035956;28;20048;-78
2022/09/23 22:34:58;;;;;;;30.30;27.23;;;14.30;99.90;;;;;;5028434;28;20038;-78
2022/09/23 22:37:26;;;;;;;31.02;27.50;;;14.40;99.90;;;;;;5035126;28;20045;-78
2022/09/23 22:39:53;;;;;;;30.60;27.40;;;14.40;99.90;;;;;;5029563;28;20048;-77
2022/09/23 22:42:22;;;;;;;31.33;27.95;;;14.40;99.90;;;;;;5030817;28;20180;-78
2022/09/23 22:44:48;;;;;;;33.88;30.23;;;14.30;99.90;;;;;;5036146;28;20595;-76
2022/09/23 22:47:16;;;;;;;31.05;27.95;;;14.30;99.90;;;;;;5044719;28;20077;-77
2022/09/23 22:49:42;;;;;;;31.92;28.58;;;14.30;99.90;;;;;;5040481;28;20041;-78
2022/09/23 22:52:10;;;;;;;31.65;28.58;;;14.30;99.90;;;;;;5034333;28;20038;-77
2022/09/23 22:54:36;;;;;;;32.70;29.30;;;14.30;99.90;;;;;;5032088;28;20145;-77
2022/09/23 22:57:06;;;;;;;34.85;31.30;;;14.30;99.90;;;;;;5031251;28;20143;-76
2022/09/23 22:59:33;;;;;;;35.10;31.50;;;14.30;99.90;;;;;;5032835;28;20041;-78
2022/09/23 23:02:01;;;;;;;35.70;31.70;;;14.30;99.90;;;;;;5029007;28;20049;-78
2022/09/23 23:04:28;;;;;;;33.83;30.33;;;14.20;99.90;;;;;;5042721;28;20408;-77
2022/09/23 23:06:54;;;;;;;;;;;14.30;99.90;;;;;;5034229;28;20041;-79
2022/09/23 23:09:20;;;;;;;34.80;31.20;;;14.20;99.90;;;;;;5043379;28;19924;-78
2022/09/23 23:11:45;;;;;;;33.97;30.42;;;14.20;99.90;;;;;;5037808;28;20472;-78
2022/09/23 23:14:13;;;;;;;33.10;29.67;;;14.20;99.90;;;;;;5049223;28;20450;-78
2022/09/23 23:16:39;;;;;;;35.67;31.83;;;14.20;99.90;;;;;;5029348;28;20041;-77
2022/09/23 23:19:08;;;;;;;35.75;32.13;;;14.20;99.90;;;;;;5044508;28;20535;-77
2022/09/23 23:21:35;;;;;;;35.60;32.00;;;14.20;99.90;;;;;;5031509;28;20076;-77
2022/09/23 23:24:04;;;;;;;38.10;34.08;;;14.20;99.90;;;;;;5038795;28;20124;-77
2022/09/23 23:26:32;;;;;;;36.92;33.20;;;14.20;99.90;;;;;;5037799;28;20041;-78
2022/09/23 23:28:58;;;;;;;35.38;31.80;;;14.20;99.90;;;;;;5028267;28;20057;-77
2022/09/23 23:31:26;;;;;;;37.20;33.63;;;14.20;99.90;;;;;;5041876;28;20040;-77
2022/09/23 23:33:53;;;;;;;37.13;33.30;;;14.20;99.90;;;;;;5034553;28;20056;-77
2022/09/23 23:36:20;;;;;;;38.58;34.30;;;14.20;99.90;;;;;;5032193;28;20077;-77
2022/09/23 23:38:47;;;;;;;37.03;33.33;;;14.20;99.90;;;;;;5035740;28;20489;-77
2022/09/23 23:41:17;;;;;;;40.28;35.90;;;14.20;99.90;;;;;;5040164;28;20051;-77
2022/09/23 23:43:45;;;;;;;39.67;35.67;;;14.20;99.90;;;;;;5045348;28;20077;-77
2022/09/23 23:46:12;;;;;;;39.35;35.15;;;14.20;99.90;;;;;;5030941;28;20069;-77
2022/09/23 23:48:39;;;;;;;41.45;35.95;;;14.20;99.90;;;;;;5044984;28;20301;-77
2022/09/23 23:51:07;;;;;;;42.03;37.58;;;14.20;99.90;;;;;;5036425;28;20127;-77
2022/09/23 23:53:33;;;;;;;;;;;14.20;99.90;;;;;;5038153;28;20400;-77
2022/09/23 23:56:24;;;;;;;39.22;35.22;;;14.20;99.90;;;;;;5030742;28;19974;-78
2022/09/23 23:58:57;;;;;;;44.33;38.00;;;14.20;99.90;;;;;;5036285;28;20045;-78
